createdAt,value
2023-01-22T00:01:40.195Z,18.60
2023-01-22T00:04:07.757Z,16.75
2023-01-22T00:06:35.298Z,15.98
2023-01-22T00:09:04.657Z,17.17
2023-01-22T00:11:32.298Z,17.08
2023-01-22T00:13:59.992Z,16.83
2023-01-22T00:16:27.466Z,16.27
2023-01-22T00:18:54.999Z,16.25
2023-01-22T00:21:22.735Z,13.50
2023-01-22T00:23:50.234Z,16.13
2023-01-22T00:26:20.839Z,18.58
2023-01-22T00:28:48.336Z,16.23
2023-01-22T00:31:17.407Z,16.08
2023-01-22T00:36:20.079Z,15.82
2023-01-22T00:38:48.145Z,18.58
2023-01-22T00:41:17.147Z,17.65
2023-01-22T00:43:46.295Z,15.73
2023-01-22T00:46:15.514Z,18.92
2023-01-22T00:48:45.173Z,15.50
2023-01-22T00:51:14.828Z,18.42
2023-01-22T00:53:43.719Z,16.48
2023-01-22T00:56:12.368Z,15.98
2023-01-22T00:58:39.883Z,15.35
2023-01-22T01:01:09.351Z,13.13
2023-01-22T01:03:37.662Z,15.30
2023-01-22T01:06:08.414Z,14.68
2023-01-22T01:08:37.880Z,16.42
2023-01-22T01:11:08.082Z,17.73
2023-01-22T01:13:39.019Z,19.13
2023-01-22T01:16:10.228Z,16.88
2023-01-22T01:18:38.199Z,15.93
2023-01-22T01:21:07.496Z,15.52
2023-01-22T01:23:36.284Z,16.17
2023-01-22T01:26:06.448Z,16.88
2023-01-22T01:28:35.842Z,17.63
2023-01-22T01:31:05.083Z,16.73
2023-01-22T01:33:34.115Z,18.60
2023-01-22T01:36:02.990Z,18.08
2023-01-22T01:38:30.535Z,17.27
2023-01-22T01:40:58.242Z,17.80
2023-01-22T01:43:26.319Z,18.90
2023-01-22T01:45:54.817Z,19.65
2023-01-22T01:48:30.928Z,20.30
2023-01-22T01:51:05.917Z,18.75
2023-01-22T01:53:34.297Z,21.70
2023-01-22T01:56:04.381Z,20.27
2023-01-22T01:58:34.962Z,18.90
2023-01-22T02:01:09.049Z,22.27
2023-01-22T02:03:36.700Z,20.85
2023-01-22T02:06:06.066Z,17.58
2023-01-22T02:08:33.802Z,21.00
2023-01-22T02:11:01.493Z,19.55
2023-01-22T02:13:33.228Z,22.02
2023-01-22T02:16:00.888Z,20.73
2023-01-22T02:18:28.563Z,22.70
2023-01-22T02:20:59.543Z,22.25
2023-01-22T02:23:27.979Z,20.90
2023-01-22T02:25:55.954Z,17.50
2023-01-22T02:28:23.485Z,18.13
2023-01-22T02:30:51.232Z,19.70
2023-01-22T02:33:18.771Z,19.42
2023-01-22T02:35:46.289Z,21.15
2023-01-22T02:38:15.136Z,22.58
2023-01-22T02:40:49.117Z,22.67
2023-01-22T02:43:17.340Z,21.60
2023-01-22T02:45:44.989Z,20.83
2023-01-22T02:48:12.556Z,19.83
2023-01-22T02:50:40.136Z,19.17
2023-01-22T02:53:07.666Z,20.70
2023-01-22T02:55:36.759Z,21.70
2023-01-22T02:58:04.363Z,21.98
2023-01-22T03:00:32.181Z,23.30
2023-01-22T03:02:59.727Z,21.55
2023-01-22T03:05:27.295Z,21.95
2023-01-22T03:07:54.786Z,20.38
2023-01-22T03:10:22.369Z,21.17
2023-01-22T03:13:08.979Z,23.98
2023-01-22T03:15:56.899Z,21.55
2023-01-22T03:18:42.047Z,21.05
2023-01-22T03:21:15.646Z,18.75
2023-01-22T03:23:43.560Z,21.40
2023-01-22T03:26:12.031Z,21.33
2023-01-22T03:28:40.920Z,22.88
2023-01-22T03:31:09.507Z,24.60
2023-01-22T03:33:37.426Z,24.52
2023-01-22T03:36:07.580Z,22.98
2023-01-22T03:38:35.426Z,22.25
2023-01-22T03:41:04.781Z,18.17
2023-01-22T03:43:32.748Z,21.15
2023-01-22T03:46:06.989Z,21.63
2023-01-22T03:48:34.547Z,19.73
2023-01-22T03:51:06.993Z,20.80
2023-01-22T03:53:35.113Z,21.08
2023-01-22T03:56:04.563Z,17.10
2023-01-22T03:58:32.974Z,21.35
2023-01-22T04:01:02.528Z,23.27
2023-01-22T04:03:31.907Z,23.98
2023-01-22T04:06:01.078Z,23.98
2023-01-22T04:08:30.089Z,23.23
2023-01-22T04:10:58.754Z,23.73
2023-01-22T04:13:27.341Z,24.67
2023-01-22T04:15:54.996Z,25.67
2023-01-22T04:18:22.598Z,22.70
2023-01-22T04:20:52.256Z,23.70
2023-01-22T04:23:20.328Z,22.40
2023-01-22T04:25:48.249Z,25.10
2023-01-22T04:28:17.457Z,27.80
2023-01-22T04:30:46.995Z,22.95
2023-01-22T04:33:14.729Z,25.63
2023-01-22T04:35:42.469Z,25.88
2023-01-22T04:38:14.766Z,22.77
2023-01-22T04:40:42.279Z,22.80
2023-01-22T04:43:11.429Z,23.60
2023-01-22T04:45:39.267Z,26.38
2023-01-22T04:48:08.383Z,25.85
2023-01-22T04:50:36.275Z,25.48
2023-01-22T04:53:05.039Z,25.73
2023-01-22T04:55:34.145Z,25.38
2023-01-22T04:58:02.323Z,26.73
2023-01-22T05:00:31.573Z,30.13
2023-01-22T05:02:59.940Z,26.92
2023-01-22T05:05:28.509Z,27.98
2023-01-22T05:07:56.140Z,27.35
2023-01-22T05:10:24.099Z,25.30
2023-01-22T05:12:53.274Z,30.65
2023-01-22T05:15:25.208Z,30.13
2023-01-22T05:17:53.415Z,28.83
2023-01-22T05:20:21.256Z,29.30
2023-01-22T05:22:49.371Z,28.42
2023-01-22T05:25:17.050Z,24.50
2023-01-22T05:27:44.940Z,29.85
2023-01-22T05:30:14.576Z,27.20
2023-01-22T05:32:42.171Z,26.17
2023-01-22T05:35:10.425Z,26.23
2023-01-22T05:37:37.934Z,30.65
2023-01-22T05:40:06.766Z,27.02
2023-01-22T05:42:36.462Z,26.42
2023-01-22T05:45:04.234Z,26.73
2023-01-22T05:47:33.091Z,28.08
2023-01-22T05:50:00.597Z,30.75
2023-01-22T05:52:28.229Z,32.05
2023-01-22T05:54:55.704Z,29.08
2023-01-22T05:57:23.228Z,29.50
2023-01-22T05:59:50.784Z,32.53
2023-01-22T06:02:21.227Z,30.27
2023-01-22T06:04:50.128Z,28.20
2023-01-22T06:07:17.612Z,26.60
2023-01-22T06:09:45.096Z,27.85
2023-01-22T06:12:12.681Z,29.98
2023-01-22T06:14:40.185Z,29.10
2023-01-22T06:17:07.665Z,30.42
2023-01-22T06:19:35.159Z,30.45
2023-01-22T06:22:04.116Z,30.75
2023-01-22T06:24:31.645Z,28.42
2023-01-22T06:26:59.184Z,32.58
2023-01-22T06:29:26.771Z,30.95
2023-01-22T06:31:54.330Z,31.15
2023-01-22T06:34:21.921Z,33.80
2023-01-22T06:36:52.749Z,30.77
2023-01-22T06:39:21.825Z,33.83
2023-01-22T06:41:51.059Z,31.35
2023-01-22T06:44:19.344Z,33.90
2023-01-22T06:46:47.615Z,29.02
2023-01-22T06:49:15.494Z,32.25
2023-01-22T06:51:47.125Z,30.77
2023-01-22T06:54:15.141Z,27.00
2023-01-22T06:56:44.175Z,34.65
2023-01-22T06:59:14.143Z,30.15
2023-01-22T07:01:45.344Z,28.65
2023-01-22T07:04:13.066Z,32.75
2023-01-22T07:06:40.986Z,27.50
2023-01-22T07:09:09.569Z,23.40
2023-01-22T07:11:37.329Z,24.85
2023-01-22T07:14:13.926Z,26.42
2023-01-22T07:16:42.304Z,26.38
2023-01-22T07:19:09.869Z,27.92
2023-01-22T07:21:37.463Z,26.10
2023-01-22T07:24:07.554Z,29.00
2023-01-22T07:26:37.235Z,27.90
2023-01-22T07:29:14.286Z,27.67
2023-01-22T07:31:49.871Z,27.67
2023-01-22T07:34:22.706Z,30.42
2023-01-22T07:37:05.958Z,28.73
2023-01-22T07:39:55.294Z,26.77
2023-01-22T07:42:32.978Z,28.42
2023-01-22T07:45:12.439Z,32.58
2023-01-22T07:47:48.050Z,27.88
2023-01-22T07:50:20.929Z,27.27
2023-01-22T07:55:31.830Z,27.35
2023-01-22T07:58:02.840Z,25.10
2023-01-22T08:00:43.662Z,27.33
2023-01-22T08:03:19.002Z,34.03
2023-01-22T08:05:53.948Z,29.10
2023-01-22T08:08:24.488Z,30.45
2023-01-22T08:11:04.357Z,28.33
2023-01-22T08:13:35.813Z,31.33
2023-01-22T08:16:18.410Z,29.40
2023-01-22T08:18:56.266Z,31.40
2023-01-22T08:21:50.828Z,29.02
2023-01-22T08:24:22.673Z,30.10
2023-01-22T08:26:59.195Z,31.33
2023-01-22T08:29:40.930Z,32.15
2023-01-22T08:32:18.536Z,34.20
2023-01-22T08:34:57.209Z,34.75
2023-01-22T08:37:36.083Z,35.88
2023-01-22T08:40:09.007Z,32.58
2023-01-22T08:42:36.832Z,32.15
2023-01-22T08:45:04.919Z,31.42
2023-01-22T08:47:34.000Z,31.30
2023-01-22T08:50:02.854Z,33.20
2023-01-22T08:52:30.669Z,27.52
2023-01-22T08:54:58.284Z,30.92
2023-01-22T08:57:26.011Z,30.85
2023-01-22T09:00:01.074Z,33.08
2023-01-22T09:02:29.423Z,35.47
2023-01-22T09:04:58.377Z,28.95
2023-01-22T09:07:26.092Z,31.42
2023-01-22T09:09:53.592Z,33.40
2023-01-22T09:12:21.120Z,32.90
2023-01-22T09:14:48.685Z,31.75
2023-01-22T09:17:16.223Z,28.95
2023-01-22T09:19:43.854Z,31.98
2023-01-22T09:22:12.879Z,30.85
2023-01-22T09:24:40.471Z,29.45
2023-01-22T09:27:09.084Z,32.65
2023-01-22T09:29:36.625Z,33.75
2023-01-22T09:32:04.457Z,33.45
2023-01-22T09:34:33.305Z,31.25
2023-01-22T09:37:05.256Z,36.92
2023-01-22T09:39:34.118Z,36.65
2023-01-22T09:42:04.746Z,37.67
2023-01-22T09:44:38.634Z,31.98
2023-01-22T09:47:10.687Z,34.63
2023-01-22T09:49:44.155Z,39.65
2023-01-22T09:52:12.561Z,34.95
2023-01-22T09:54:42.198Z,36.22
2023-01-22T09:57:26.472Z,33.72
2023-01-22T09:59:58.573Z,35.63
2023-01-22T10:02:31.253Z,35.58
2023-01-22T10:05:04.034Z,36.70
2023-01-22T10:07:35.011Z,29.60
2023-01-22T10:10:19.629Z,35.13
2023-01-22T10:12:50.819Z,34.13
2023-01-22T10:15:21.591Z,32.13
2023-01-22T10:17:49.294Z,30.95
2023-01-22T10:20:21.136Z,31.38
2023-01-22T10:22:49.225Z,33.50
2023-01-22T10:25:18.523Z,32.90
2023-01-22T10:27:47.660Z,29.58
2023-01-22T10:30:22.307Z,31.02
2023-01-22T10:32:59.814Z,30.35
2023-01-22T10:35:28.124Z,28.65
2023-01-22T10:37:57.915Z,31.13
2023-01-22T10:40:30.860Z,30.70
2023-01-22T10:43:03.687Z,30.27
2023-01-22T10:48:07.407Z,31.40
2023-01-22T10:50:34.922Z,34.63
2023-01-22T10:53:04.673Z,34.47
2023-01-22T10:55:40.774Z,33.50
2023-01-22T10:58:17.285Z,28.70
2023-01-22T11:00:52.261Z,28.98
2023-01-22T11:03:22.915Z,31.27
2023-01-22T11:05:56.216Z,26.77
2023-01-22T11:08:29.266Z,24.92
2023-01-22T11:11:03.432Z,23.60
2023-01-22T11:13:39.705Z,24.15
2023-01-22T11:16:16.197Z,27.25
2023-01-22T11:18:47.611Z,22.40
2023-01-22T11:21:17.772Z,27.88
2023-01-22T11:23:50.316Z,22.77
2023-01-22T11:26:28.653Z,25.13
2023-01-22T11:29:04.738Z,22.17
2023-01-22T11:31:54.357Z,22.85
2023-01-22T11:34:39.263Z,24.33
2023-01-22T11:37:13.713Z,23.83
2023-01-22T11:39:55.195Z,21.60
2023-01-22T11:42:37.086Z,22.45
2023-01-22T11:45:17.107Z,20.05
2023-01-22T11:47:56.243Z,23.02
2023-01-22T11:50:29.012Z,18.08
2023-01-22T11:55:50.175Z,20.10
2023-01-22T11:58:28.805Z,19.70
2023-01-22T12:01:16.105Z,28.38
2023-01-22T12:04:00.332Z,17.08
2023-01-22T12:06:45.319Z,19.95
2023-01-22T12:09:22.879Z,18.00
2023-01-22T12:12:04.315Z,19.35
2023-01-22T12:14:42.617Z,17.05
2023-01-22T12:17:23.896Z,16.00
2023-01-22T12:20:17.961Z,15.82
2023-01-22T12:22:52.984Z,14.90
2023-01-22T12:25:27.501Z,16.20
2023-01-22T12:28:00.620Z,14.25
2023-01-22T12:30:38.789Z,13.35
2023-01-22T12:33:10.235Z,13.77
2023-01-22T12:35:38.158Z,15.20
2023-01-22T12:38:14.931Z,16.02
2023-01-22T12:40:57.471Z,13.98
2023-01-22T12:43:35.012Z,12.05
2023-01-22T12:46:12.710Z,19.75
2023-01-22T12:48:49.093Z,18.67
2023-01-22T12:51:28.880Z,18.95
2023-01-22T12:53:56.431Z,15.48
2023-01-22T12:56:33.860Z,17.70
2023-01-22T12:59:01.395Z,15.52
2023-01-22T13:01:37.164Z,19.52
2023-01-22T13:04:07.693Z,14.65
2023-01-22T13:06:37.773Z,15.73
2023-01-22T13:09:07.464Z,18.05
2023-01-22T13:11:36.540Z,18.73
2023-01-22T13:14:20.154Z,17.40
2023-01-22T13:16:55.603Z,14.80
2023-01-22T13:19:25.066Z,15.60
2023-01-22T13:21:53.618Z,15.45
2023-01-22T13:24:22.493Z,16.23
2023-01-22T13:26:53.803Z,14.82
2023-01-22T13:29:27.023Z,13.65
2023-01-22T13:31:59.429Z,12.82
2023-01-22T13:34:28.675Z,12.40
2023-01-22T13:36:56.771Z,14.18
2023-01-22T13:39:26.987Z,13.88
2023-01-22T13:41:57.262Z,14.07
2023-01-22T13:44:27.723Z,13.70
2023-01-22T13:46:56.767Z,15.23
2023-01-22T13:49:25.834Z,13.60
2023-01-22T13:51:54.089Z,14.38
2023-01-22T13:54:28.399Z,13.80
2023-01-22T13:56:56.003Z,14.63
2023-01-22T13:59:27.362Z,14.65
2023-01-22T14:01:56.351Z,13.98
2023-01-22T14:04:35.489Z,14.30
2023-01-22T14:07:03.075Z,12.73
2023-01-22T14:09:32.886Z,15.18
2023-01-22T14:12:01.837Z,12.68
2023-01-22T14:14:40.122Z,13.90
2023-01-22T14:17:08.992Z,14.93
2023-01-22T14:19:37.403Z,14.63
2023-01-22T14:22:04.881Z,12.90
2023-01-22T14:24:32.349Z,14.32
2023-01-22T14:26:59.845Z,13.23
2023-01-22T14:29:27.916Z,12.52
2023-01-22T14:31:55.454Z,12.30
2023-01-22T14:34:24.265Z,13.02
2023-01-22T14:36:51.770Z,13.57
2023-01-22T14:39:19.284Z,12.70
2023-01-22T14:41:49.404Z,13.63
2023-01-22T14:44:16.912Z,12.60
2023-01-22T14:46:44.386Z,14.63
2023-01-22T14:49:11.872Z,14.88
2023-01-22T14:51:41.145Z,14.68
2023-01-22T14:54:08.616Z,13.73
2023-01-22T14:56:36.135Z,13.30
2023-01-22T14:59:04.541Z,12.13
2023-01-22T15:01:32.035Z,13.82
2023-01-22T15:03:59.562Z,13.60
2023-01-22T15:06:27.102Z,14.00
2023-01-22T15:08:55.917Z,13.02
2023-01-22T15:11:23.457Z,13.50
2023-01-22T15:13:52.715Z,13.55
2023-01-22T15:16:20.678Z,14.35
2023-01-22T15:18:48.180Z,14.23
2023-01-22T15:21:15.730Z,13.57
2023-01-22T15:23:43.237Z,12.23
2023-01-22T15:26:25.018Z,11.55
2023-01-22T15:28:52.508Z,13.13
2023-01-22T15:31:20.036Z,15.65
2023-01-22T15:33:47.609Z,11.80
2023-01-22T15:36:15.150Z,11.60
2023-01-22T15:38:42.676Z,12.70
2023-01-22T15:41:20.187Z,14.52
2023-01-22T15:43:51.547Z,15.48
2023-01-22T15:46:20.179Z,11.95
2023-01-22T15:48:48.061Z,13.07
2023-01-22T15:51:15.863Z,17.20
2023-01-22T15:53:48.436Z,12.95
2023-01-22T15:56:15.889Z,13.20
2023-01-22T15:58:43.348Z,14.52
2023-01-22T16:01:12.295Z,13.18
2023-01-22T16:03:39.781Z,13.18
2023-01-22T16:06:11.839Z,13.02
2023-01-22T16:08:39.593Z,11.85
2023-01-22T16:11:08.058Z,13.27
2023-01-22T16:13:35.666Z,14.15
2023-01-22T16:16:06.235Z,12.35
2023-01-22T16:18:36.328Z,14.40
2023-01-22T16:21:04.815Z,14.30
2023-01-22T16:23:33.522Z,15.52
2023-01-22T16:26:01.867Z,14.63
2023-01-22T16:28:29.390Z,15.50
2023-01-22T16:30:56.968Z,15.50
2023-01-22T16:33:28.998Z,16.77
2023-01-22T16:36:01.818Z,14.10
2023-01-22T16:41:08.510Z,15.13
2023-01-22T16:43:36.088Z,17.55
2023-01-22T16:46:04.458Z,14.02
2023-01-22T16:48:31.941Z,13.35
2023-01-22T16:51:00.771Z,13.70
2023-01-22T16:53:28.329Z,16.27
2023-01-22T16:55:55.828Z,14.57
2023-01-22T16:58:23.327Z,14.10
2023-01-22T17:00:52.277Z,14.90
2023-01-22T17:03:19.753Z,15.70
2023-01-22T17:05:49.087Z,16.83
2023-01-22T17:08:17.887Z,17.05
2023-01-22T17:10:45.472Z,17.02
2023-01-22T17:13:13.090Z,15.25
2023-01-22T17:15:42.101Z,19.05
2023-01-22T17:18:09.630Z,18.77
2023-01-22T17:20:37.714Z,19.42
2023-01-22T17:23:05.211Z,19.92
2023-01-22T17:25:34.015Z,19.38
2023-01-22T17:28:01.480Z,19.35
2023-01-22T17:30:29.000Z,23.35
2023-01-22T17:32:56.504Z,16.52
2023-01-22T17:35:23.974Z,18.63
2023-01-22T17:37:51.481Z,20.30
2023-01-22T17:40:19.362Z,17.88
2023-01-22T17:42:48.173Z,16.77
2023-01-22T17:45:15.833Z,14.45
2023-01-22T17:47:44.207Z,20.17
2023-01-22T17:50:13.173Z,17.52
2023-01-22T17:52:41.180Z,17.25
2023-01-22T17:55:09.402Z,17.77
2023-01-22T17:57:36.877Z,19.30
2023-01-22T18:00:09.456Z,20.50
2023-01-22T18:02:36.955Z,18.85
2023-01-22T18:05:05.554Z,18.13
2023-01-22T18:07:33.040Z,18.05
2023-01-22T18:10:00.537Z,14.80
2023-01-22T18:12:28.044Z,18.98
2023-01-22T18:14:55.520Z,21.05
2023-01-22T18:17:25.071Z,15.80
2023-01-22T18:19:52.626Z,15.82
2023-01-22T18:22:20.521Z,17.38
2023-01-22T18:24:47.953Z,17.75
2023-01-22T18:27:16.485Z,21.08
2023-01-22T18:29:44.002Z,17.17
2023-01-22T18:32:11.473Z,16.52
2023-01-22T18:34:40.272Z,15.98
2023-01-22T18:37:07.793Z,21.88
2023-01-22T18:39:35.603Z,19.05
2023-01-22T18:42:03.165Z,21.85
2023-01-22T18:44:30.661Z,21.55
2023-01-22T18:46:59.979Z,48.95
2023-01-22T18:49:28.911Z,25.38
2023-01-22T18:52:00.844Z,25.38
2023-01-22T18:54:29.114Z,26.17
2023-01-22T18:56:57.143Z,28.77
2023-01-22T18:59:24.672Z,23.90
2023-01-22T19:01:52.449Z,24.80
2023-01-22T19:04:21.948Z,27.92
2023-01-22T19:06:54.659Z,23.35
2023-01-22T19:09:29.421Z,22.98
2023-01-22T19:11:58.770Z,20.67
2023-01-22T19:14:30.632Z,23.73
2023-01-22T19:17:03.375Z,22.77
2023-01-22T19:19:34.985Z,24.70
2023-01-22T19:22:04.429Z,21.23
2023-01-22T19:25:39.966Z,22.92
2023-01-22T19:30:55.528Z,19.33
2023-01-22T19:33:33.463Z,20.08
2023-01-22T19:36:02.259Z,22.45
2023-01-22T19:38:30.859Z,20.35
2023-01-22T19:40:59.048Z,29.05
2023-01-22T19:43:27.075Z,21.90
2023-01-22T19:45:56.576Z,30.95
2023-01-22T19:48:27.366Z,24.10
2023-01-22T19:51:04.207Z,20.58
2023-01-22T19:53:36.004Z,19.70
2023-01-22T19:56:15.461Z,18.52
2023-01-22T19:58:43.064Z,18.30
2023-01-22T20:01:13.552Z,20.15
2023-01-22T20:03:44.782Z,18.15
2023-01-22T20:06:22.047Z,20.92
2023-01-22T20:08:52.735Z,17.42
2023-01-22T20:11:20.846Z,19.95
2023-01-22T20:13:49.395Z,17.95
2023-01-22T20:16:24.960Z,19.35
2023-01-22T20:18:55.710Z,22.23
2023-01-22T20:21:27.890Z,19.83
2023-01-22T20:24:05.426Z,21.67
2023-01-22T20:26:38.999Z,22.55
2023-01-22T20:29:13.558Z,20.23
2023-01-22T20:31:46.943Z,19.10
2023-01-22T20:34:18.628Z,23.77
2023-01-22T20:36:48.157Z,21.65
2023-01-22T20:39:30.628Z,18.58
2023-01-22T20:42:05.402Z,22.13
2023-01-22T20:44:40.617Z,21.73
2023-01-22T20:47:14.736Z,20.30
2023-01-22T20:49:46.479Z,21.95
2023-01-22T20:52:33.460Z,21.70
2023-01-22T20:55:13.675Z,18.13
2023-01-22T20:57:46.055Z,18.98
2023-01-22T21:00:19.605Z,20.80
2023-01-22T21:02:58.773Z,18.55
2023-01-22T21:05:32.390Z,22.60
2023-01-22T21:08:09.631Z,17.73
2023-01-22T21:10:44.481Z,20.08
2023-01-22T21:13:16.743Z,20.55
2023-01-22T21:15:49.252Z,20.55
2023-01-22T21:18:28.133Z,22.55
2023-01-22T21:21:07.216Z,20.00
2023-01-22T21:23:42.241Z,20.63
2023-01-22T21:26:16.189Z,21.55
2023-01-22T21:28:52.404Z,21.33
2023-01-22T21:31:25.162Z,19.60
2023-01-22T21:36:43.808Z,17.23
2023-01-22T21:39:21.464Z,18.27
2023-01-22T21:42:13.129Z,16.45
2023-01-22T21:45:05.275Z,19.05
2023-01-22T21:47:36.011Z,20.60
2023-01-22T21:50:18.242Z,18.15
2023-01-22T21:52:54.463Z,19.80
2023-01-22T21:55:24.929Z,22.10
2023-01-22T21:57:56.869Z,21.20
2023-01-22T22:00:28.540Z,19.13
2023-01-22T22:03:01.169Z,18.98
2023-01-22T22:05:31.870Z,18.88
2023-01-22T22:08:03.335Z,19.42
2023-01-22T22:10:35.534Z,20.02
2023-01-22T22:13:05.418Z,20.33
2023-01-22T22:15:41.870Z,18.20
2023-01-22T22:18:20.081Z,17.67
2023-01-22T22:21:00.018Z,19.67
2023-01-22T22:23:36.314Z,20.08
2023-01-22T22:26:11.940Z,19.38
2023-01-22T22:28:45.386Z,21.15
2023-01-22T22:31:24.068Z,20.42
2023-01-22T22:33:59.286Z,18.63
2023-01-22T22:36:36.959Z,19.65
2023-01-22T22:39:09.620Z,21.75
2023-01-22T22:41:39.413Z,18.38
2023-01-22T22:44:21.927Z,21.52
2023-01-22T22:46:55.450Z,20.90
2023-01-22T22:49:26.595Z,19.75
2023-01-22T22:52:03.433Z,19.70
2023-01-22T22:54:37.594Z,19.60
2023-01-22T22:57:14.491Z,20.48
2023-01-22T22:59:44.291Z,18.13
2023-01-22T23:02:17.215Z,20.10
2023-01-22T23:04:49.668Z,18.48
2023-01-22T23:07:23.628Z,17.58
2023-01-22T23:09:59.591Z,16.52
2023-01-22T23:12:30.259Z,18.77
2023-01-22T23:18:02.168Z,17.48
2023-01-22T23:20:37.033Z,20.30
2023-01-22T23:23:14.802Z,19.63
2023-01-22T23:25:50.087Z,18.55
2023-01-22T23:28:28.946Z,18.15
2023-01-22T23:31:09.440Z,19.30
2023-01-22T23:33:44.774Z,21.02
2023-01-22T23:36:23.037Z,19.65
2023-01-22T23:38:57.122Z,16.73
2023-01-22T23:41:29.773Z,19.60
2023-01-22T23:44:07.303Z,15.95
2023-01-22T23:46:44.591Z,18.58
2023-01-22T23:49:17.009Z,17.15
2023-01-22T23:51:51.176Z,18.23
2023-01-22T23:54:26.249Z,18.23
2023-01-22T23:56:59.232Z,19.08
2023-01-22T23:59:34.242Z,17.70
